createdAt,value
2023-01-28T00:02:00.709Z,531.20
2023-01-28T00:04:31.429Z,381.60
2023-01-28T00:07:03.262Z,203.30
2023-01-28T00:09:32.459Z,134.40
2023-01-28T00:12:01.764Z,179.80
2023-01-28T00:14:31.160Z,119.90
2023-01-28T00:17:00.465Z,78.30
2023-01-28T00:19:30.898Z,50.00
2023-01-28T00:22:00.938Z,45.80
2023-01-28T00:24:36.556Z,175.90
2023-01-28T00:27:06.349Z,314.90
2023-01-28T00:29:35.786Z,371.90
2023-01-28T00:32:04.995Z,280.90
2023-01-28T00:34:34.061Z,349.10
2023-01-28T00:37:02.868Z,242.20
2023-01-28T00:39:36.557Z,180.00
2023-01-28T00:42:09.333Z,118.30
2023-01-28T00:44:39.554Z,70.90
2023-01-28T00:47:08.757Z,80.20
2023-01-28T00:49:38.054Z,95.90
2023-01-28T00:52:08.341Z,67.80
2023-01-28T00:54:42.802Z,53.50
2023-01-28T00:57:13.399Z,41.50
2023-01-28T00:59:43.457Z,37.70
2023-01-28T01:02:13.807Z,33.60
2023-01-28T01:04:55.350Z,38.80
2023-01-28T01:07:32.643Z,32.90
2023-01-28T01:10:02.063Z,32.80
2023-01-28T01:12:31.648Z,26.20
2023-01-28T01:15:02.705Z,31.00
2023-01-28T01:17:32.648Z,28.10
2023-01-28T01:20:01.870Z,28.10
2023-01-28T01:22:34.181Z,25.50
2023-01-28T01:25:05.448Z,41.50
2023-01-28T01:27:34.860Z,74.70
2023-01-28T01:30:03.971Z,97.10
2023-01-28T01:32:35.688Z,104.30
2023-01-28T01:35:07.221Z,65.90
2023-01-28T01:37:37.599Z,198.50
2023-01-28T01:40:07.623Z,86.10
2023-01-28T01:42:36.510Z,150.80
2023-01-28T01:45:08.189Z,79.10
2023-01-28T01:47:46.800Z,183.30
2023-01-28T01:50:37.441Z,114.50
2023-01-28T01:53:11.397Z,145.60
2023-01-28T01:55:41.925Z,322.90
2023-01-28T01:58:13.987Z,239.00
2023-01-28T02:00:47.258Z,213.50
2023-01-28T02:03:17.558Z,123.30
2023-01-28T02:05:46.653Z,157.50
2023-01-28T02:08:22.221Z,150.00
2023-01-28T02:10:57.097Z,185.90
2023-01-28T02:13:28.377Z,227.60
2023-01-28T02:15:57.063Z,509.60
2023-01-28T02:18:26.567Z,414.80
2023-01-28T02:21:07.773Z,206.20
2023-01-28T02:24:00.145Z,447.90
2023-01-28T02:27:17.207Z,324.00
2023-01-28T02:29:59.150Z,177.10
2023-01-28T02:32:38.091Z,158.90
2023-01-28T02:35:10.607Z,169.80
2023-01-28T02:37:58.915Z,144.00
2023-01-28T02:40:34.501Z,121.80
2023-01-28T02:43:03.284Z,124.20
2023-01-28T02:45:54.757Z,106.00
2023-01-28T02:48:23.528Z,64.10
2023-01-28T02:51:00.722Z,52.10
2023-01-28T02:53:41.755Z,43.00
2023-01-28T02:56:35.595Z,39.10
2023-01-28T02:59:32.231Z,49.00
2023-01-28T03:02:21.630Z,72.70
2023-01-28T03:04:58.815Z,55.50
2023-01-28T03:07:29.901Z,75.50
2023-01-28T03:10:03.104Z,44.00
2023-01-28T03:13:00.619Z,52.60
2023-01-28T03:16:06.670Z,52.10
2023-01-28T03:19:05.882Z,49.00
2023-01-28T03:22:01.698Z,32.50
2023-01-28T03:28:25.069Z,101.40
2023-01-28T03:31:19.357Z,53.40
2023-01-28T03:34:17.042Z,60.70
2023-01-28T03:36:48.743Z,34.60
2023-01-28T03:39:49.047Z,33.70
2023-01-28T03:42:20.949Z,32.30
2023-01-28T03:45:17.499Z,38.80
2023-01-28T03:47:51.626Z,49.50
2023-01-28T03:50:22.825Z,40.40
2023-01-28T03:53:16.410Z,32.00
2023-01-28T03:55:57.855Z,46.60
2023-01-28T03:58:28.236Z,333.70
2023-01-28T04:00:57.141Z,190.10
2023-01-28T04:03:31.772Z,94.60
2023-01-28T04:06:06.119Z,39.90
2023-01-28T04:09:01.005Z,47.00
2023-01-28T04:11:33.828Z,39.30
2023-01-28T04:14:15.538Z,27.90
2023-01-28T04:16:55.102Z,26.60
2023-01-28T04:19:38.921Z,26.60
2023-01-28T04:22:33.452Z,29.30
2023-01-28T04:25:03.894Z,25.70
2023-01-28T04:27:35.126Z,30.20
2023-01-28T04:30:32.777Z,34.80
2023-01-28T04:33:14.611Z,30.80
2023-01-28T04:36:04.765Z,51.90
2023-01-28T04:38:53.951Z,94.70
2023-01-28T04:41:43.308Z,69.30
2023-01-28T04:44:28.706Z,54.60
2023-01-28T04:47:20.867Z,44.40
2023-01-28T04:50:11.128Z,59.20
2023-01-28T04:53:01.470Z,130.20
2023-01-28T04:55:48.948Z,124.90
2023-01-28T04:58:17.827Z,180.40
2023-01-28T05:00:48.145Z,94.60
2023-01-28T05:03:17.700Z,149.10
2023-01-28T05:05:46.855Z,134.70
2023-01-28T05:08:23.618Z,61.10
2023-01-28T05:10:52.742Z,60.50
2023-01-28T05:13:21.701Z,39.20
2023-01-28T05:15:53.538Z,38.10
2023-01-28T05:18:23.586Z,26.90
2023-01-28T05:21:05.158Z,26.00
2023-01-28T05:23:36.789Z,26.00
2023-01-28T05:26:06.151Z,29.10
2023-01-28T05:28:37.418Z,26.80
2023-01-28T05:31:07.125Z,84.50
2023-01-28T05:33:36.352Z,46.00
2023-01-28T05:36:08.132Z,47.10
2023-01-28T05:38:38.585Z,35.70
2023-01-28T05:41:07.486Z,31.60
2023-01-28T05:43:37.608Z,36.80
2023-01-28T05:46:16.398Z,25.70
2023-01-28T05:49:04.321Z,24.70
2023-01-28T05:51:53.144Z,25.30
2023-01-28T05:54:24.117Z,23.50
2023-01-28T05:56:54.561Z,23.90
2023-01-28T05:59:24.427Z,25.40
2023-01-28T06:01:59.903Z,27.90
2023-01-28T06:04:29.626Z,30.70
2023-01-28T06:07:02.160Z,23.20
2023-01-28T06:09:34.370Z,23.90
2023-01-28T06:12:03.723Z,22.60
2023-01-28T06:14:38.831Z,28.80
2023-01-28T06:17:12.749Z,26.20
2023-01-28T06:20:01.902Z,21.10
2023-01-28T06:22:33.593Z,21.70
2023-01-28T06:25:02.535Z,21.20
2023-01-28T06:27:37.323Z,21.50
2023-01-28T06:30:06.901Z,23.30
2023-01-28T06:32:35.866Z,22.50
2023-01-28T06:35:05.590Z,28.40
2023-01-28T06:37:34.118Z,21.40
2023-01-28T06:40:04.373Z,21.60
2023-01-28T06:42:34.544Z,20.90
2023-01-28T06:45:04.479Z,23.70
2023-01-28T06:47:34.862Z,22.20
2023-01-28T06:50:04.585Z,21.50
2023-01-28T06:52:34.148Z,22.00
2023-01-28T06:55:03.244Z,22.30
2023-01-28T07:12:27.696Z,23.30
2023-01-28T07:14:56.790Z,19.70
2023-01-28T07:17:26.347Z,20.70
2023-01-28T07:19:56.622Z,23.80
2023-01-28T07:22:33.086Z,21.20
2023-01-28T07:25:02.630Z,21.90
2023-01-28T07:27:33.222Z,22.70
2023-01-28T07:30:02.016Z,21.80
2023-01-28T07:32:32.439Z,19.80
2023-01-28T07:35:01.125Z,24.10
2023-01-28T07:37:30.628Z,22.20
2023-01-28T07:39:59.828Z,20.30
2023-01-28T07:42:29.331Z,22.00
2023-01-28T07:44:58.427Z,22.20
2023-01-28T07:47:28.079Z,21.50
2023-01-28T07:49:56.925Z,22.10
2023-01-28T07:52:26.179Z,23.00
2023-01-28T07:54:55.528Z,20.10
2023-01-28T07:57:27.185Z,21.10
2023-01-28T07:59:56.171Z,22.90
2023-01-28T08:02:25.577Z,20.50
2023-01-28T08:04:55.255Z,20.10
2023-01-28T08:07:24.788Z,24.60
2023-01-28T08:09:53.483Z,25.00
2023-01-28T08:12:22.057Z,22.60
2023-01-28T08:14:51.560Z,18.70
2023-01-28T08:17:21.996Z,20.90
2023-01-28T08:19:51.288Z,23.20
2023-01-28T08:22:24.071Z,20.80
2023-01-28T08:24:53.067Z,20.90
2023-01-28T08:27:22.576Z,24.00
2023-01-28T08:29:51.821Z,27.30
2023-01-28T08:32:20.563Z,24.20
2023-01-28T08:34:52.415Z,19.60
2023-01-28T08:37:25.699Z,23.20
2023-01-28T08:39:59.262Z,20.30
2023-01-28T08:42:33.339Z,23.30
2023-01-28T08:45:05.985Z,22.20
2023-01-28T08:47:34.478Z,22.00
2023-01-28T08:50:03.651Z,22.40
2023-01-28T08:52:32.977Z,22.80
2023-01-28T08:55:01.676Z,25.60
2023-01-28T08:57:32.748Z,22.50
2023-01-28T09:00:01.392Z,29.30
2023-01-28T09:02:32.316Z,22.80
2023-01-28T09:05:01.566Z,24.20
2023-01-28T09:07:30.729Z,20.80
2023-01-28T09:10:00.739Z,23.90
2023-01-28T09:12:29.942Z,27.10
2023-01-28T09:14:59.444Z,25.80
2023-01-28T09:17:28.954Z,20.40
2023-01-28T09:19:57.835Z,22.30
2023-01-28T09:22:29.903Z,23.10
2023-01-28T09:25:00.175Z,21.20
2023-01-28T09:27:28.910Z,21.70
2023-01-28T09:29:57.803Z,20.90
2023-01-28T09:32:26.793Z,22.50
2023-01-28T09:34:55.586Z,23.50
2023-01-28T09:37:25.703Z,21.20
2023-01-28T09:39:54.285Z,22.00
2023-01-28T09:42:40.489Z,25.80
2023-01-28T09:45:16.986Z,27.30
2023-01-28T09:47:53.629Z,29.30
2023-01-28T09:50:34.831Z,23.70
2023-01-28T09:53:08.819Z,21.10
2023-01-28T09:55:42.690Z,19.90
2023-01-28T09:58:12.756Z,25.80
2023-01-28T10:00:59.653Z,23.20
2023-01-28T10:04:10.055Z,22.70
2023-01-28T10:07:13.099Z,22.10
2023-01-28T10:10:17.959Z,22.00
2023-01-28T10:13:06.834Z,24.50
2023-01-28T10:15:39.477Z,26.30
2023-01-28T10:18:17.711Z,25.10
2023-01-28T10:32:12.384Z,26.40
2023-01-28T10:34:41.228Z,26.10
2023-01-28T10:37:12.850Z,22.30
2023-01-28T10:39:42.289Z,22.30
2023-01-28T10:42:38.047Z,24.90
2023-01-28T10:45:19.711Z,25.30
2023-01-28T10:48:01.772Z,21.90
2023-01-28T10:50:31.732Z,20.80
2023-01-28T10:53:03.405Z,22.30
2023-01-28T10:55:59.760Z,21.30
2023-01-28T10:58:29.541Z,21.50
2023-01-28T11:01:04.032Z,23.80
2023-01-28T11:03:33.355Z,21.30
2023-01-28T11:06:02.283Z,21.60
2023-01-28T11:08:32.108Z,26.30
2023-01-28T11:11:01.549Z,18.60
2023-01-28T11:13:30.941Z,26.70
2023-01-28T11:16:04.207Z,27.20
2023-01-28T11:21:05.135Z,21.90
2023-01-28T11:23:48.268Z,19.40
2023-01-28T11:28:48.601Z,15.60
2023-01-28T11:31:18.438Z,23.90
2023-01-28T11:33:53.957Z,21.90
2023-01-28T11:36:30.119Z,23.50
2023-01-28T11:39:00.520Z,24.60
2023-01-28T11:41:37.737Z,19.70
2023-01-28T11:44:15.027Z,19.00
2023-01-28T11:47:01.319Z,20.10
2023-01-28T11:50:03.407Z,23.80
2023-01-28T11:53:06.519Z,21.70
2023-01-28T11:55:57.652Z,24.40
2023-01-28T11:58:42.144Z,20.40
2023-01-28T12:01:34.178Z,21.10
2023-01-28T12:04:22.326Z,21.60
2023-01-28T12:07:26.759Z,20.40
2023-01-28T12:10:08.890Z,25.40
2023-01-28T12:12:44.290Z,19.70
2023-01-28T12:15:21.930Z,21.00
2023-01-28T12:18:18.776Z,19.50
2023-01-28T12:23:34.738Z,18.40
2023-01-28T12:26:15.031Z,20.70
2023-01-28T12:28:53.213Z,21.00
2023-01-28T12:31:47.129Z,24.30
2023-01-28T12:34:31.994Z,18.90
2023-01-28T12:37:27.918Z,19.70
2023-01-28T12:40:07.295Z,20.60
2023-01-28T12:42:42.408Z,22.90
2023-01-28T12:45:25.525Z,20.80
2023-01-28T12:48:00.582Z,21.00
2023-01-28T12:50:47.010Z,22.40
2023-01-28T12:53:27.762Z,21.20
2023-01-28T12:56:06.754Z,19.80
2023-01-28T12:58:41.305Z,19.90
2023-01-28T13:01:13.593Z,20.60
2023-01-28T13:03:46.581Z,21.20
2023-01-28T13:06:55.712Z,19.30
2023-01-28T13:09:26.054Z,18.40
2023-01-28T13:11:58.281Z,21.60
2023-01-28T13:14:32.482Z,19.90
2023-01-28T13:17:25.134Z,19.20
2023-01-28T13:19:54.376Z,17.20
2023-01-28T13:22:35.471Z,20.80
2023-01-28T13:25:20.960Z,18.00
2023-01-28T13:28:05.036Z,19.90
2023-01-28T13:30:36.467Z,19.10
2023-01-28T13:33:07.367Z,17.00
2023-01-28T13:35:40.857Z,20.10
2023-01-28T13:38:18.264Z,24.30
2023-01-28T13:41:00.403Z,21.60
2023-01-28T13:43:41.573Z,22.50
2023-01-28T13:46:28.689Z,18.80
2023-01-28T13:48:58.948Z,16.80
2023-01-28T13:51:35.165Z,19.10
2023-01-28T13:54:08.891Z,17.50
2023-01-28T13:56:59.860Z,18.60
2023-01-28T13:59:51.591Z,19.40
2023-01-28T14:02:44.271Z,21.70
2023-01-28T14:05:25.337Z,18.70
2023-01-28T14:08:10.823Z,19.70
2023-01-28T14:10:51.540Z,18.90
2023-01-28T14:13:35.722Z,19.50
2023-01-28T14:16:20.040Z,16.20
2023-01-28T14:18:49.234Z,19.40
2023-01-28T14:21:22.482Z,16.40
2023-01-28T14:23:53.274Z,17.00
2023-01-28T14:26:45.597Z,16.40
2023-01-28T14:29:51.416Z,20.40
2023-01-28T14:32:26.427Z,16.60
2023-01-28T14:34:58.696Z,17.80
2023-01-28T14:37:30.445Z,17.80
2023-01-28T14:40:02.404Z,16.90
2023-01-28T14:42:33.131Z,17.70
2023-01-28T14:45:18.169Z,18.90
2023-01-28T14:47:53.941Z,18.30
2023-01-28T14:50:47.300Z,19.10
2023-01-28T14:53:55.631Z,14.60
2023-01-28T14:56:40.790Z,21.00
2023-01-28T14:59:20.431Z,19.90
2023-01-28T15:01:50.047Z,17.00
2023-01-28T15:04:29.616Z,18.70
2023-01-28T15:07:02.843Z,18.50
2023-01-28T15:09:33.209Z,20.10
2023-01-28T15:12:04.057Z,19.50
2023-01-28T15:14:35.793Z,17.10
2023-01-28T15:17:05.616Z,16.50
2023-01-28T15:19:36.154Z,15.80
2023-01-28T15:22:07.583Z,18.20
2023-01-28T15:24:37.049Z,16.20
2023-01-28T15:27:07.487Z,18.00
2023-01-28T15:29:41.826Z,18.90
2023-01-28T15:32:30.859Z,16.00
2023-01-28T15:35:03.527Z,15.40
2023-01-28T15:37:33.277Z,17.30
2023-01-28T15:40:12.307Z,18.10
2023-01-28T15:42:46.153Z,19.20
2023-01-28T15:45:23.078Z,17.70
2023-01-28T15:47:52.435Z,17.10
2023-01-28T15:50:26.406Z,18.10
2023-01-28T15:52:56.267Z,17.80
2023-01-28T15:55:36.670Z,19.70
2023-01-28T15:58:31.174Z,17.40
2023-01-28T16:01:09.939Z,18.70
2023-01-28T16:03:42.633Z,18.30
2023-01-28T16:06:14.223Z,14.50
2023-01-28T16:09:00.192Z,16.50
2023-01-28T16:11:29.782Z,19.20
2023-01-28T16:14:00.061Z,18.30
2023-01-28T16:16:36.459Z,18.20
2023-01-28T16:19:08.944Z,18.90
2023-01-28T16:21:44.800Z,17.50
2023-01-28T16:24:26.341Z,17.10
2023-01-28T16:27:10.933Z,15.10
2023-01-28T16:29:53.755Z,15.60
2023-01-28T16:32:35.845Z,17.20
2023-01-28T16:35:18.529Z,16.30
2023-01-28T16:37:49.656Z,19.50
2023-01-28T16:40:23.871Z,17.90
2023-01-28T16:42:57.167Z,18.50
2023-01-28T16:45:26.055Z,17.70
2023-01-28T16:47:54.655Z,19.00
2023-01-28T16:50:24.171Z,19.80
2023-01-28T16:52:54.331Z,19.90
2023-01-28T16:55:23.329Z,18.90
2023-01-28T16:57:57.148Z,20.70
2023-01-28T17:00:26.707Z,19.40
2023-01-28T17:02:55.356Z,23.30
2023-01-28T17:05:27.814Z,20.00
2023-01-28T17:08:01.124Z,16.80
2023-01-28T17:10:31.456Z,20.30
2023-01-28T17:13:00.462Z,21.50
2023-01-28T17:15:29.862Z,19.60
2023-01-28T17:17:59.722Z,21.60
2023-01-28T17:20:30.287Z,19.90
2023-01-28T17:22:59.145Z,20.50
2023-01-28T17:25:27.735Z,22.80
2023-01-28T17:27:56.537Z,18.90
2023-01-28T17:30:25.237Z,19.70
2023-01-28T17:32:54.846Z,21.90
2023-01-28T17:35:23.370Z,20.60
2023-01-28T17:37:53.700Z,18.80
2023-01-28T17:40:22.748Z,19.60
2023-01-28T17:42:51.323Z,19.30
2023-01-28T17:45:22.142Z,18.00
2023-01-28T17:47:51.061Z,19.60
2023-01-28T17:50:20.262Z,22.00
2023-01-28T17:52:55.117Z,20.00
2023-01-28T17:55:26.815Z,19.40
2023-01-28T17:57:55.244Z,20.50
2023-01-28T18:00:27.281Z,19.70
2023-01-28T18:02:56.251Z,18.60
2023-01-28T18:05:25.074Z,18.80
2023-01-28T18:07:53.904Z,18.50
2023-01-28T22:10:36.183Z,141.30
2023-01-28T22:13:06.551Z,129.80
2023-01-28T22:15:35.322Z,307.40
2023-01-28T22:18:06.337Z,194.70
2023-01-28T22:20:37.403Z,171.00
2023-01-28T22:23:06.576Z,128.20
2023-01-28T22:25:35.982Z,80.30
2023-01-28T22:28:05.543Z,125.50
2023-01-28T22:30:35.702Z,359.50
2023-01-28T22:33:05.007Z,312.10
2023-01-28T22:35:33.834Z,104.70
2023-01-28T22:38:05.612Z,149.80
2023-01-28T22:40:34.523Z,111.40
2023-01-28T22:43:03.821Z,100.50
2023-01-28T22:45:32.738Z,71.90
2023-01-28T22:48:01.976Z,63.30
2023-01-28T22:50:30.779Z,63.50
2023-01-28T22:52:59.957Z,42.50
2023-01-28T22:55:30.274Z,47.60
2023-01-28T22:57:59.675Z,60.90
2023-01-28T23:00:28.842Z,38.10
2023-01-28T23:02:57.714Z,41.60
2023-01-28T23:05:27.748Z,62.80
2023-01-28T23:08:10.541Z,43.00
2023-01-28T23:10:40.442Z,31.50
2023-01-28T23:13:09.246Z,24.90
2023-01-28T23:16:00.174Z,22.30
2023-01-28T23:18:49.237Z,28.50
2023-01-28T23:21:43.392Z,30.90
2023-01-28T23:25:02.710Z,36.60
2023-01-28T23:27:43.995Z,25.60
2023-01-28T23:30:19.866Z,27.90
2023-01-28T23:35:19.543Z,21.90
2023-01-28T23:37:49.976Z,29.60
2023-01-28T23:40:22.796Z,37.00
2023-01-28T23:43:02.035Z,57.60
2023-01-28T23:45:33.617Z,40.00
2023-01-28T23:48:05.336Z,68.40
2023-01-28T23:50:35.331Z,94.00
2023-01-28T23:53:13.328Z,46.40
2023-01-28T23:55:44.250Z,76.70
2023-01-28T23:58:13.341Z,47.10
